Time;durP1;ratioP1;P1;durP2;ratioP2;P2;SDS_P1;SDS_P2;PMS_P1;PMS_P2;Temp;Humidity;BMP_temperature;BMP_pressure;BME280_temperature;BME280_humidity;BME280_pressure;Samples;Min_cycle;Max_cycle;Signal;HPM_P1;HPM_P2
2023/11/09 00:01:05;;;;;;;3.63;3.17;;;;;;;7.63;62.80;95377.41;5031899;28;20030;-75
2023/11/09 00:03:30;;;;;;;4.30;3.45;;;;;;;7.64;62.66;95371.53;5019700;28;20103;-74
2023/11/09 00:05:56;;;;;;;3.58;3.22;;;;;;;7.60;62.79;95367.28;5013983;28;20112;-75
2023/11/09 00:08:23;;;;;;;4.18;3.40;;;;;;;7.62;62.80;95367.63;5014646;28;20033;-75
2023/11/09 00:10:49;;;;;;;3.47;3.08;;;;;;;7.65;62.83;95364.88;5016759;28;20169;-75
2023/11/09 00:13:14;;;;;;;5.03;3.92;;;;;;;7.65;62.37;95362.13;5005141;28;20469;-74
2023/11/09 00:15:40;;;;;;;5.38;3.03;;;;;;;7.63;62.37;95359.03;5006669;28;20763;-75
2023/11/09 00:18:05;;;;;;;5.22;3.42;;;;;;;7.64;62.57;95366.06;5010481;28;20129;-74
2023/11/09 00:20:31;;;;;;;4.57;2.92;;;;;;;7.77;62.17;95365.53;5022409;28;20042;-74
2023/11/09 00:22:56;;;;;;;4.50;3.35;;;;;;;7.80;61.75;95370.16;5014623;28;20039;-75
2023/11/09 00:25:22;;;;;;;4.22;3.08;;;;;;;7.69;62.19;95362.88;5025226;28;20025;-74
2023/11/09 00:27:47;;;;;;;3.88;2.92;;;;;;;7.69;62.22;95371.09;5025940;28;20025;-75
2023/11/09 00:30:13;;;;;;;4.90;3.47;;;;;;;7.68;62.17;95366.00;5021629;28;20091;-76
2023/11/09 00:32:38;;;;;;;4.07;3.17;;;;;;;7.70;62.22;95364.44;5015575;28;20064;-75
2023/11/09 00:35:05;;;;;;;4.32;3.58;;;;;;;7.81;62.04;95369.00;5025858;28;20235;-75
2023/11/09 00:37:31;;;;;;;4.20;3.50;;;;;;;7.76;62.02;95366.72;5021406;28;20052;-75
2023/11/09 00:39:56;;;;;;;4.25;3.38;;;;;;;7.72;61.64;95374.97;5009180;28;20083;-74
2023/11/09 00:42:22;;;;;;;3.75;3.05;;;;;;;7.78;61.72;95381.53;5023335;28;20025;-75
2023/11/09 00:44:48;;;;;;;3.65;3.20;;;;;;;7.78;61.56;95369.81;5037529;28;20069;-75
2023/11/09 00:47:13;;;;;;;4.75;3.13;;;;;;;7.75;61.55;95379.63;5019945;28;20030;-75
2023/11/09 00:49:38;;;;;;;3.63;3.30;;;;;;;7.70;61.60;95378.09;5037676;28;20481;-75
2023/11/09 00:52:04;;;;;;;3.85;3.13;;;;;;;7.68;61.65;95387.91;5005947;28;20029;-75
2023/11/09 00:54:29;;;;;;;3.55;3.03;;;;;;;7.70;61.67;95391.78;5005900;28;20033;-74
2023/11/09 00:56:55;;;;;;;3.58;3.28;;;;;;;7.63;61.77;95380.94;5042323;28;20113;-75
2023/11/09 00:59:20;;;;;;;3.72;3.33;;;;;;;7.66;61.96;95379.31;5045100;28;20119;-75
2023/11/09 01:01:46;;;;;;;3.95;3.45;;;;;;;7.77;61.25;95379.22;5024932;28;20443;-75
2023/11/09 01:04:11;;;;;;;4.60;3.70;;;;;;;7.64;61.49;95377.00;5011826;28;20065;-75
2023/11/09 01:06:37;;;;;;;4.10;3.00;;;;;;;7.54;61.73;95377.09;5009471;28;20081;-74
2023/11/09 01:09:02;;;;;;;3.97;3.35;;;;;;;7.46;61.83;95381.88;5017920;28;20026;-74
2023/11/09 01:11:27;;;;;;;4.53;4.07;;;;;;;7.43;62.11;95371.75;5006388;28;20026;-76
2023/11/09 01:13:53;;;;;;;6.97;3.67;;;;;;;7.29;62.27;95378.13;5011533;28;20029;-75
2023/11/09 01:16:19;;;;;;;4.78;3.38;;;;;;;7.24;62.50;95381.31;5008773;28;20030;-74
2023/11/09 01:18:45;;;;;;;4.40;4.00;;;;;;;7.21;62.90;95384.06;5040737;28;20470;-75
2023/11/09 01:21:11;;;;;;;6.60;3.88;;;;;;;7.21;62.70;95373.13;5012340;28;20096;-75
2023/11/09 01:23:36;;;;;;;4.38;3.70;;;;;;;7.23;62.59;95377.03;5026895;28;20022;-75
2023/11/09 01:26:02;;;;;;;5.65;3.95;;;;;;;7.11;62.95;95378.28;5014320;28;20512;-75
2023/11/09 01:28:27;;;;;;;4.05;3.45;;;;;;;7.10;62.83;95378.66;5039291;28;20029;-75
2023/11/09 01:30:53;;;;;;;5.57;3.92;;;;;;;7.06;62.77;95378.72;5023542;28;20031;-74
2023/11/09 01:33:18;;;;;;;4.63;3.97;;;;;;;7.08;62.98;95383.78;5040097;28;20033;-75
2023/11/09 01:35:44;;;;;;;4.18;3.75;;;;;;;7.09;62.67;95379.84;5007884;28;20099;-75
2023/11/09 01:38:09;;;;;;;5.35;3.90;;;;;;;6.99;62.69;95381.50;5006442;28;20600;-75
2023/11/09 01:40:36;;;;;;;4.43;3.53;;;;;;;6.97;63.02;95383.84;5006117;28;20026;-75
2023/11/09 01:43:01;;;;;;;4.88;3.88;;;;;;;6.96;62.71;95379.56;5005848;28;20029;-75
2023/11/09 01:45:27;;;;;;;5.07;3.80;;;;;;;6.92;63.10;95382.31;5006404;28;20504;-76
2023/11/09 01:47:53;;;;;;;5.22;3.90;;;;;;;6.85;62.88;95378.88;5008095;28;20037;-74
2023/11/09 01:50:18;;;;;;;3.85;3.38;;;;;;;6.77;63.12;95391.06;5027348;28;20034;-74
2023/11/09 01:52:44;;;;;;;4.45;3.55;;;;;;;6.65;63.47;95384.06;5012954;28;20072;-74
2023/11/09 01:55:10;;;;;;;3.75;3.28;;;;;;;6.65;62.80;95392.28;5027850;28;20081;-74
2023/11/09 01:57:36;;;;;;;3.40;3.10;;;;;;;6.58;63.29;95387.63;5041188;28;20026;-75
2023/11/09 02:00:03;;;;;;;4.03;3.33;;;;;;;6.50;63.26;95394.31;5043041;28;20075;-75
2023/11/09 02:02:29;;;;;;;4.18;3.72;;;;;;;6.50;63.58;95399.78;5042895;28;20025;-75
2023/11/09 02:04:54;;;;;;;4.43;3.40;;;;;;;6.44;63.47;95392.41;5040114;28;20040;-75
2023/11/09 02:07:20;;;;;;;4.28;3.70;;;;;;;6.45;63.37;95392.00;5041918;28;20033;-75
2023/11/09 02:09:48;;;;;;;5.30;3.95;;;;;;;6.45;63.25;95402.94;5043010;28;20072;-75
2023/11/09 02:12:14;;;;;;;4.85;3.53;;;;;;;6.46;63.49;95395.53;5027195;28;20029;-74
2023/11/09 02:14:40;;;;;;;4.32;3.92;;;;;;;6.43;63.37;95388.91;5010693;28;20040;-74
2023/11/09 02:17:06;;;;;;;3.92;3.53;;;;;;;6.39;63.68;95388.91;5023625;28;20028;-74
2023/11/09 02:19:31;;;;;;;3.75;3.42;;;;;;;6.40;63.33;95403.34;5040144;28;20388;-75
2023/11/09 02:21:57;;;;;;;4.55;3.58;;;;;;;6.30;63.63;95406.91;5042650;28;20087;-75
2023/11/09 02:24:25;;;;;;;4.25;3.75;;;;;;;6.20;63.98;95410.50;5024457;28;20493;-75
2023/11/09 02:26:52;;;;;;;4.13;3.72;;;;;;;6.24;63.73;95412.00;5042201;28;20634;-75
2023/11/09 02:29:20;;;;;;;4.15;3.75;;;;;;;6.04;64.33;95411.72;5027981;28;20083;-75
2023/11/09 02:31:45;;;;;;;4.70;4.18;;;;;;;6.00;64.71;95415.63;5031329;28;20034;-75
2023/11/09 02:34:11;;;;;;;4.50;3.85;;;;;;;6.03;64.20;95414.84;5025580;28;20026;-75
2023/11/09 02:36:36;;;;;;;5.18;4.45;;;;;;;5.96;64.10;95403.94;5043755;28;20036;-74
2023/11/09 02:39:02;;;;;;;4.85;3.83;;;;;;;6.10;63.79;95417.53;5011249;28;20049;-75
2023/11/09 02:41:27;;;;;;;6.45;3.72;;;;;;;6.11;63.73;95421.81;5043328;28;20032;-75
2023/11/09 02:43:53;;;;;;;4.25;3.70;;;;;;;6.11;63.46;95422.59;5013379;28;20091;-75
2023/11/09 02:46:18;;;;;;;4.10;3.70;;;;;;;6.04;64.00;95428.09;5013772;28;20364;-75
2023/11/09 02:48:46;;;;;;;5.18;4.20;;;;;;;6.08;64.08;95436.28;5027447;28;20026;-75
2023/11/09 02:51:12;;;;;;;5.28;4.32;;;;;;;6.06;63.97;95442.09;5023273;28;20030;-75
2023/11/09 02:53:39;;;;;;;5.28;4.05;;;;;;;6.08;64.12;95445.25;5026298;28;20488;-75
2023/11/09 02:56:07;;;;;;;4.63;3.95;;;;;;;6.17;63.56;95433.88;5036576;28;20414;-74
2023/11/09 02:58:37;;;;;;;4.30;3.85;;;;;;;6.13;63.62;95431.16;5039378;28;20119;-75
2023/11/09 03:01:02;;;;;;;5.10;4.43;;;;;;;6.18;63.74;95429.19;5007260;28;20053;-75
2023/11/09 03:03:28;;;;;;;4.82;4.15;;;;;;;6.29;63.37;95438.91;5042574;28;20216;-75
2023/11/09 03:05:55;;;;;;;4.55;4.15;;;;;;;6.26;63.46;95439.72;5039732;28;20431;-74
2023/11/09 03:08:26;;;;;;;4.45;4.05;;;;;;;6.37;63.54;95442.41;5038859;28;20042;-74
2023/11/09 03:10:52;;;;;;;5.10;4.60;;;;;;;6.33;63.23;95439.66;5011603;28;20024;-75
2023/11/09 03:13:19;;;;;;;4.95;4.50;;;;;;;6.34;63.17;95454.88;5022028;28;20104;-74
2023/11/09 03:15:46;;;;;;;4.40;4.00;;;;;;;6.40;63.30;95452.50;5012212;28;20061;-74
2023/11/09 03:18:11;;;;;;;4.80;4.30;;;;;;;6.44;63.09;95449.78;5016063;28;20064;-74
2023/11/09 03:20:37;;;;;;;5.53;4.43;;;;;;;6.47;62.74;95443.50;5036909;28;20046;-73
2023/11/09 03:23:02;;;;;;;5.07;4.57;;;;;;;6.48;63.14;95445.84;5038390;28;20033;-74
2023/11/09 03:25:28;;;;;;;6.35;5.70;;;;;;;6.50;63.54;95454.41;5008694;28;20072;-74
2023/11/09 03:27:53;;;;;;;5.35;4.72;;;;;;;6.46;63.21;95434.53;5018342;28;20105;-74
2023/11/09 03:30:19;;;;;;;4.65;4.15;;;;;;;6.56;63.20;95447.38;5025687;28;20033;-72
2023/11/09 03:32:44;;;;;;;5.30;4.40;;;;;;;6.57;63.02;95437.22;5027384;28;20112;-73
2023/11/09 03:35:10;;;;;;;4.28;3.88;;;;;;;6.56;62.88;95441.91;5011196;28;20045;-75
2023/11/09 03:37:35;;;;;;;5.60;4.50;;;;;;;6.58;62.82;95441.50;5007800;28;20022;-74
2023/11/09 03:40:06;;;;;;;5.15;4.65;;;;;;;6.59;62.96;95446.56;5013942;28;20088;-74
2023/11/09 03:42:33;;;;;;;21.33;7.80;;;;;;;6.60;62.63;95448.13;5011554;28;20071;-73
2023/11/09 03:44:58;;;;;;;10.90;6.90;;;;;;;6.49;62.91;95439.22;5017340;28;20026;-73
2023/11/09 03:47:24;;;;;;;6.82;5.70;;;;;;;6.45;63.13;95443.13;5010226;28;20022;-75
2023/11/09 03:49:49;;;;;;;6.85;5.03;;;;;;;6.46;63.16;95447.41;5017418;28;20037;-74
2023/11/09 03:52:14;;;;;;;5.15;4.40;;;;;;;6.45;63.35;95443.13;5020183;28;20064;-74
2023/11/09 03:54:40;;;;;;;5.30;4.75;;;;;;;6.39;63.42;95450.97;5011527;28;20037;-73
2023/11/09 03:57:05;;;;;;;5.25;4.65;;;;;;;6.39;63.39;95457.19;5007811;28;20109;-74
2023/11/09 03:59:31;;;;;;;6.18;4.25;;;;;;;6.38;63.15;95457.59;5023351;28;20113;-75
2023/11/09 04:01:56;;;;;;;5.22;4.72;;;;;;;6.37;63.36;95456.06;5022836;28;20064;-75
2023/11/09 04:04:21;;;;;;;5.78;4.97;;;;;;;6.31;63.32;95447.50;5026679;28;20074;-76
2023/11/09 04:06:48;;;;;;;5.90;5.07;;;;;;;6.35;63.30;95455.66;5014344;28;20033;-75
2023/11/09 04:09:14;;;;;;;5.70;5.07;;;;;;;6.34;63.43;95465.78;5045107;28;20036;-75
2023/11/09 04:11:40;;;;;;;6.53;5.22;;;;;;;6.32;63.60;95465.44;5025799;28;20566;-74
2023/11/09 04:14:07;;;;;;;5.82;4.30;;;;;;;6.27;63.81;95456.88;5018462;28;20029;-76
2023/11/09 04:16:34;;;;;;;7.07;6.38;;;;;;;6.29;64.04;95459.97;5011786;28;20032;-73
2023/11/09 04:18:59;;;;;;;12.63;6.65;;;;;;;6.23;64.43;95462.31;5036775;28;20120;-75
2023/11/09 04:21:25;;;;;;;6.13;5.35;;;;;;;6.33;63.62;95453.31;5006978;28;20684;-75
2023/11/09 04:23:50;;;;;;;7.15;5.75;;;;;;;6.28;63.96;95464.66;5037515;28;20029;-75
2023/11/09 04:26:16;;;;;;;8.25;5.47;;;;;;;6.23;64.12;95456.88;5005061;28;20029;-75
2023/11/09 04:28:42;;;;;;;7.10;4.93;;;;;;;6.21;64.17;95459.22;5008594;28;20037;-74
2023/11/09 04:31:10;;;;;;;5.95;5.20;;;;;;;6.22;64.00;95458.03;5017133;28;20033;-75
2023/11/09 04:33:36;;;;;;;7.28;5.72;;;;;;;6.28;63.62;95459.19;5026218;28;20029;-74
2023/11/09 04:36:08;;;;;;;5.90;5.07;;;;;;;6.26;63.28;95461.56;5040164;28;20037;-74
2023/11/09 04:38:38;;;;;;;6.10;4.93;;;;;;;6.23;63.43;95461.56;5025868;28;20057;-74
2023/11/09 04:41:12;;;;;;;5.53;4.97;;;;;;;6.17;63.41;95461.19;5018994;28;20022;-75
2023/11/09 04:43:39;;;;;;;7.03;5.47;;;;;;;6.22;63.79;95468.97;5018950;28;20037;-74
2023/11/09 04:46:11;;;;;;;6.55;5.25;;;;;;;6.16;63.95;95464.31;5006439;28;20053;-74
2023/11/09 04:48:44;;;;;;;6.13;5.53;;;;;;;6.14;63.92;95470.19;5037742;28;20029;-74
2023/11/09 04:51:20;;;;;;;5.88;4.85;;;;;;;6.15;63.79;95471.72;5039386;28;20075;-74
2023/11/09 04:53:47;;;;;;;8.48;6.38;;;;;;;6.10;64.25;95475.63;5013508;28;20034;-74
2023/11/09 04:56:30;;;;;;;6.28;5.65;;;;;;;6.11;64.51;95471.72;5007465;28;20511;-73
2023/11/09 04:59:02;;;;;;;8.50;6.63;;;;;;;6.07;64.50;95464.72;5020808;28;20104;-74
2023/11/09 05:06:57;;;;;;;9.05;6.72;;;;;;;5.97;64.70;95466.31;5018991;28;20033;-76
2023/11/09 05:09:23;;;;;;;6.15;5.53;;;;;;;6.01;64.45;95469.03;5015189;28;20056;-75
2023/11/09 05:11:50;;;;;;;8.45;6.57;;;;;;;6.02;64.77;95478.75;5028576;28;20060;-75
2023/11/09 05:14:16;;;;;;;12.60;7.07;;;;;;;6.00;64.59;95479.16;5015545;28;20030;-75
2023/11/09 05:16:41;;;;;;;12.30;7.57;;;;;;;6.00;64.78;95473.72;5038250;28;20033;-76
2023/11/09 05:19:08;;;;;;;9.38;7.45;;;;;;;5.93;64.54;95465.53;5036148;28;20039;-75
2023/11/09 05:21:33;;;;;;;11.40;7.13;;;;;;;5.95;65.09;95478.78;5011085;28;20077;-75
2023/11/09 05:23:58;;;;;;;9.80;6.88;;;;;;;5.91;65.13;95477.97;5005075;28;20034;-75
2023/11/09 05:26:27;;;;;;;9.02;6.60;;;;;;;5.88;65.07;95476.84;5022910;28;20044;-75
2023/11/09 05:28:53;;;;;;;10.18;7.35;;;;;;;5.82;65.51;95481.91;5014839;28;20044;-75
2023/11/09 05:31:25;;;;;;;10.75;7.20;;;;;;;5.95;65.51;95487.75;5038737;28;20108;-75
2023/11/09 05:33:52;;;;;;;11.55;8.30;;;;;;;5.85;65.65;95485.81;5047768;28;20033;-75
2023/11/09 05:36:18;;;;;;;14.43;11.63;;;;;;;5.83;65.91;95490.88;5048764;28;20025;-76
2023/11/09 05:38:44;;;;;;;20.60;15.90;;;;;;;5.83;66.06;95499.84;5054366;28;20033;-76
2023/11/09 05:41:10;;;;;;;23.40;18.40;;;;;;;5.83;65.86;95496.31;5028305;28;20029;-75
2023/11/09 05:43:36;;;;;;;17.25;14.40;;;;;;;5.80;65.36;95488.94;5044771;28;20017;-75
2023/11/09 05:46:01;;;;;;;17.30;13.82;;;;;;;5.84;65.06;95497.88;5028488;28;20044;-75
2023/11/09 05:48:27;;;;;;;17.25;14.65;;;;;;;5.81;65.28;95493.22;5044383;28;20037;-74
2023/11/09 05:50:54;;;;;;;16.60;12.88;;;;;;;5.79;65.47;95498.28;5039550;28;20021;-75
2023/11/09 05:53:20;;;;;;;19.70;14.13;;;;;;;5.82;65.10;95503.72;5048563;28;20100;-75
2023/11/09 05:55:45;;;;;;;14.85;12.25;;;;;;;5.75;65.11;95502.97;5045178;28;20487;-75
2023/11/09 05:58:11;;;;;;;17.00;12.50;;;;;;;5.74;65.20;95506.88;5027870;28;20072;-75
2023/11/09 06:00:38;;;;;;;13.07;9.20;;;;;;;5.75;65.21;95514.66;5029390;28;20033;-75
2023/11/09 06:03:03;;;;;;;12.88;9.52;;;;;;;5.76;64.92;95510.75;5042994;28;20021;-75
2023/11/09 06:05:29;;;;;;;13.55;9.57;;;;;;;5.82;64.70;95519.34;5044414;28;20029;-75
2023/11/09 06:07:56;;;;;;;13.32;10.07;;;;;;;5.82;64.90;95520.09;5043765;28;20029;-75
2023/11/09 06:10:21;;;;;;;15.57;10.45;;;;;;;5.80;65.12;95516.22;5026970;28;20412;-75
2023/11/09 06:12:47;;;;;;;15.30;10.77;;;;;;;5.83;65.34;95518.94;5029348;28;20511;-76
2023/11/09 06:15:15;;;;;;;12.85;9.70;;;;;;;5.83;65.17;95527.13;5027833;28;20021;-75
2023/11/09 06:17:44;;;;;;;15.93;10.73;;;;;;;5.83;65.41;95527.13;5044082;28;20033;-75
2023/11/09 06:20:12;;;;;;;12.82;10.10;;;;;;;5.86;65.37;95525.56;5026896;28;20133;-75
2023/11/09 06:22:38;;;;;;;10.32;8.85;;;;;;;5.92;65.16;95521.31;5028059;28;20029;-75
2023/11/09 06:25:04;;;;;;;10.55;8.05;;;;;;;5.97;65.11;95515.44;5026695;28;20022;-76
2023/11/09 06:27:29;;;;;;;10.35;8.32;;;;;;;5.97;64.92;95525.59;5027477;28;20083;-75
2023/11/09 06:29:56;;;;;;;11.32;7.53;;;;;;;5.95;64.90;95528.69;5025754;28;20468;-76
2023/11/09 06:32:21;;;;;;;9.20;8.20;;;;;;;6.02;64.99;95525.97;5041240;28;20405;-76
2023/11/09 06:34:47;;;;;;;9.98;7.97;;;;;;;6.07;64.84;95524.75;5019858;28;20025;-76
2023/11/09 06:37:12;;;;;;;10.35;8.63;;;;;;;6.10;64.86;95529.47;5007242;28;20030;-76
2023/11/09 06:39:39;;;;;;;10.73;8.38;;;;;;;6.19;64.84;95532.53;5038106;28;20171;-76
2023/11/09 06:42:04;;;;;;;10.38;8.07;;;;;;;6.28;64.67;95537.59;5046126;28;20029;-76
2023/11/09 06:44:30;;;;;;;12.63;8.77;;;;;;;6.33;64.64;95532.50;5029850;28;20025;-76
2023/11/09 06:46:55;;;;;;;9.43;8.50;;;;;;;6.41;64.33;95536.00;5026750;28;20030;-75
2023/11/09 06:49:20;;;;;;;10.32;8.57;;;;;;;6.50;63.98;95547.28;5026449;28;20052;-76
2023/11/09 06:51:46;;;;;;;12.32;9.50;;;;;;;6.62;64.04;95541.38;5026726;28;20029;-76
2023/11/09 06:54:12;;;;;;;12.80;8.82;;;;;;;6.65;63.85;95542.53;5013059;28;20033;-75
2023/11/09 06:56:38;;;;;;;11.68;9.80;;;;;;;6.73;63.86;95548.78;5019428;28;20022;-75
2023/11/09 06:59:03;;;;;;;11.27;8.50;;;;;;;6.84;63.53;95549.50;5038566;28;20401;-75
2023/11/09 07:01:33;;;;;;;9.32;8.23;;;;;;;6.94;63.00;95548.69;5020810;28;20096;-74
2023/11/09 07:03:59;;;;;;;10.35;9.23;;;;;;;7.02;62.94;95543.94;5061286;28;20029;-75
2023/11/09 07:06:24;;;;;;;10.02;8.25;;;;;;;7.11;63.00;95539.59;5036891;28;20025;-74
2023/11/09 07:08:51;;;;;;;12.25;9.02;;;;;;;7.21;62.74;95545.38;5026728;28;20094;-74
2023/11/09 07:11:16;;;;;;;13.00;9.77;;;;;;;7.32;62.49;95540.63;5025235;28;20021;-75
2023/11/09 07:13:42;;;;;;;10.35;8.35;;;;;;;7.44;62.27;95551.09;5042257;28;20029;-75
2023/11/09 07:16:08;;;;;;;13.70;10.70;;;;;;;7.56;62.12;95549.84;5024772;28;20447;-75
2023/11/09 07:18:34;;;;;;;13.57;11.25;;;;;;;7.68;61.83;95541.94;5050122;28;20028;-75
2023/11/09 07:21:01;;;;;;;13.10;10.63;;;;;;;7.89;61.30;95548.41;5022727;28;1120874;-74
2023/11/09 07:23:28;;;;;;;16.38;10.65;;;;;;;8.00;60.99;95549.09;5047493;28;20504;-74
2023/11/09 07:25:53;;;;;;;12.23;10.00;;;;;;;8.24;60.57;95552.78;5045557;28;20025;-75
2023/11/09 07:28:20;;;;;;;10.32;8.98;;;;;;;8.52;59.65;95557.22;5047026;28;20021;-74
2023/11/09 07:30:48;;;;;;;10.57;8.80;;;;;;;8.76;59.12;95553.41;5047573;28;20111;-74
2023/11/09 07:33:14;;;;;;;10.07;8.27;;;;;;;9.09;57.86;95553.78;5061797;28;20559;-74
2023/11/09 07:35:40;;;;;;;9.40;7.90;;;;;;;9.46;56.80;95552.09;5029510;28;20027;-74
2023/11/09 07:38:06;;;;;;;8.70;7.13;;;;;;;9.84;56.38;95547.97;5061520;28;20032;-75
2023/11/09 07:40:33;;;;;;;12.65;8.05;;;;;;;10.32;54.86;95546.81;5047036;28;20037;-74
2023/11/09 07:42:59;;;;;;;10.48;7.80;;;;;;;10.84;53.36;95542.69;5046444;28;20021;-74
2023/11/09 07:45:25;;;;;;;9.05;7.63;;;;;;;11.38;51.91;95543.09;5046847;28;20102;-75
2023/11/09 07:47:51;;;;;;;8.25;7.45;;;;;;;12.10;50.52;95544.19;5043682;28;20025;-75
2023/11/09 07:50:16;;;;;;;11.55;8.18;;;;;;;13.13;47.96;95535.09;5013859;28;20022;-75
2023/11/09 07:52:42;;;;;;;11.02;8.88;;;;;;;14.71;44.45;95532.44;5043380;28;20407;-76
2023/11/09 07:55:07;;;;;;;12.38;7.80;;;;;;;16.15;40.24;95540.41;5046028;28;20025;-75
2023/11/09 07:57:36;;;;;;;7.75;6.90;;;;;;;17.36;38.01;95545.53;5034594;28;20025;-75
2023/11/09 08:00:04;;;;;;;6.65;5.95;;;;;;;18.56;35.58;95545.78;5029630;28;20068;-74
2023/11/09 08:02:30;;;;;;;8.63;6.57;;;;;;;19.46;33.49;95541.94;5028011;28;20493;-74
2023/11/09 08:04:57;;;;;;;6.45;5.65;;;;;;;20.21;32.25;95540.63;5007711;28;20519;-74
2023/11/09 08:07:23;;;;;;;7.38;6.05;;;;;;;20.98;31.23;95534.50;5030274;28;20029;-74
2023/11/09 08:09:49;;;;;;;6.70;6.00;;;;;;;21.79;30.09;95532.75;5046706;28;20025;-74
2023/11/09 08:12:14;;;;;;;7.72;6.45;;;;;;;22.48;28.67;95541.91;5032921;28;20044;-75
2023/11/09 08:14:40;;;;;;;8.02;6.03;;;;;;;23.23;28.07;95545.31;5042142;28;20041;-75
2023/11/09 08:17:08;;;;;;;7.22;5.85;;;;;;;23.80;26.73;95539.28;5025843;28;20022;-75
2023/11/09 08:19:34;;;;;;;5.20;4.70;;;;;;;24.30;26.00;95537.69;5026376;28;20045;-73
2023/11/09 08:22:00;;;;;;;5.45;4.55;;;;;;;25.16;25.04;95541.28;5041205;28;20109;-73
2023/11/09 08:24:26;;;;;;;6.25;4.60;;;;;;;25.75;24.09;95544.03;5039426;28;20044;-75
2023/11/09 08:26:51;;;;;;;6.25;4.18;;;;;;;26.24;23.38;95544.16;5046231;28;20071;-75
2023/11/09 08:29:17;;;;;;;5.32;4.22;;;;;;;26.91;22.71;95549.09;5045878;28;20067;-75
2023/11/09 08:31:43;;;;;;;5.13;4.63;;;;;;;27.44;22.06;95555.13;5046295;28;20029;-75
2023/11/09 08:34:10;;;;;;;5.05;4.50;;;;;;;28.04;21.23;95547.03;5039853;28;20443;-81
2023/11/09 08:36:36;;;;;;;7.85;3.72;;;;;;;28.38;20.09;95548.53;5031566;28;20700;-76
2023/11/09 08:39:02;;;;;;;3.75;3.22;;;;;;;28.69;20.14;95546.97;5006032;28;20034;-76
2023/11/09 08:41:28;;;;;;;3.75;3.00;;;;;;;28.88;20.14;95549.66;5005552;28;20022;-77
2023/11/09 08:43:55;;;;;;;5.65;2.92;;;;;;;29.37;19.31;95558.47;5007953;28;20083;-78
2023/11/09 08:46:21;;;;;;;3.50;3.20;;;;;;;29.63;18.95;95549.16;5006228;28;20025;-76
2023/11/09 08:48:47;;;;;;;4.25;3.38;;;;;;;29.97;18.77;95543.47;5006910;28;20424;-78
2023/11/09 08:51:14;;;;;;;4.88;4.38;;;;;;;30.27;18.59;95545.84;5006138;28;20029;-75
2023/11/09 08:53:40;;;;;;;4.65;3.35;;;;;;;30.49;18.37;95541.66;5020331;28;20467;-76
2023/11/09 08:56:06;;;;;;;5.07;2.45;;;;;;;30.47;17.70;95543.56;5023964;28;20025;-75
2023/11/09 08:58:36;;;;;;;3.38;2.45;;;;;;;30.63;18.00;95543.09;5024281;28;20527;-75
2023/11/09 09:01:04;;;;;;;3.95;2.00;;;;;;;30.98;17.61;95540.13;5039719;28;20022;-75
2023/11/09 09:03:32;;;;;;;3.05;2.22;;;;;;;31.37;17.20;95536.16;5022440;28;20055;-75
2023/11/09 09:05:59;;;;;;;3.00;2.20;;;;;;;31.89;16.90;95542.63;5025838;28;20032;-76
2023/11/09 09:08:26;;;;;;;2.60;2.20;;;;;;;32.21;16.29;95537.13;5023635;28;20032;-75
2023/11/09 09:10:56;;;;;;;2.40;1.70;;;;;;;32.46;15.48;95528.06;5020542;28;20673;-76
2023/11/09 09:13:25;;;;;;;4.53;1.92;;;;;;;32.51;15.82;95524.25;5009310;28;20033;-76
2023/11/09 09:15:53;;;;;;;2.25;1.60;;;;;;;33.13;14.94;95528.53;5022603;28;20443;-76
2023/11/09 09:18:19;;;;;;;3.97;2.15;;;;;;;33.34;14.63;95511.19;5006128;28;20037;-76
2023/11/09 09:20:45;;;;;;;2.67;2.22;;;;;;;33.63;14.25;95520.19;5022670;28;20038;-75
2023/11/09 09:23:10;;;;;;;3.55;1.90;;;;;;;33.79;14.10;95510.22;5025261;28;20346;-75
2023/11/09 09:25:38;;;;;;;4.22;1.73;;;;;;;34.08;13.65;95509.88;5008984;28;20018;-75
2023/11/09 09:28:04;;;;;;;3.38;2.33;;;;;;;34.30;13.58;95511.78;5006103;28;20084;-76
2023/11/09 09:30:29;;;;;;;4.15;1.95;;;;;;;34.37;13.16;95506.59;5003660;28;20476;-76
2023/11/09 09:32:55;;;;;;;1.98;1.48;;;;;;;34.70;13.44;95508.03;5006430;28;20160;-76
2023/11/09 09:35:24;;;;;;;5.50;2.47;;;;;;;35.19;12.78;95508.50;5036612;28;20029;-76
2023/11/09 09:37:50;;;;;;;3.22;2.05;;;;;;;35.71;12.69;95508.44;5036792;28;20033;-76
2023/11/09 09:40:17;;;;;;;1.95;1.65;;;;;;;36.30;12.76;95513.88;5037080;28;20034;-76
2023/11/09 09:42:52;;;;;;;2.78;2.00;;;;;;;36.54;12.24;95509.31;5036945;28;20045;-75
2023/11/09 09:45:26;;;;;;;2.60;1.50;;;;;;;36.82;11.71;95507.84;5006144;28;20530;-76
2023/11/09 09:47:54;;;;;;;2.83;1.05;;;;;;;37.12;11.29;95512.28;5005011;28;20030;-75
2023/11/09 09:50:23;;;;;;;4.65;1.65;;;;;;;37.32;11.54;95507.28;5006278;28;20049;-75
2023/11/09 09:52:52;;;;;;;4.05;2.40;;;;;;;37.85;11.49;95505.47;5036117;28;20354;-75
2023/11/09 09:55:21;;;;;;;3.83;2.10;;;;;;;37.90;11.51;95506.47;5005662;28;20433;-76
2023/11/09 09:57:47;;;;;;;3.92;1.60;;;;;;;38.10;11.02;95496.47;5005574;28;20055;-75
2023/11/09 10:00:23;;;;;;;2.92;1.58;;;;;;;38.54;10.77;95495.22;5005282;28;20042;-76
2023/11/09 10:02:49;;;;;;;4.63;1.38;;;;;;;38.90;10.59;95485.50;5005904;28;20060;-76
2023/11/09 10:05:15;;;;;;;3.72;1.55;;;;;;;38.92;10.41;95484.88;5004954;28;20030;-76
2023/11/09 10:07:59;;;;;;;3.50;2.33;;;;;;;39.28;10.09;95487.31;5037524;28;20073;-76
2023/11/09 10:10:28;;;;;;;2.85;1.50;;;;;;;39.46;9.99;95484.16;5005294;28;20053;-76
2023/11/09 10:12:55;;;;;;;2.63;1.33;;;;;;;39.50;10.04;95479.41;5007291;28;20511;-75
2023/11/09 10:15:24;;;;;;;4.47;1.30;;;;;;;39.71;9.32;95469.25;5009321;28;20040;-76
2023/11/09 10:17:51;;;;;;;3.47;1.23;;;;;;;39.87;9.52;95473.16;5008377;28;20083;-75
2023/11/09 10:20:17;;;;;;;2.70;1.45;;;;;;;40.26;9.22;95470.59;5009516;28;20049;-74
2023/11/09 10:22:43;;;;;;;3.22;1.92;;;;;;;40.22;9.19;95470.31;5006879;28;20026;-76
2023/11/09 10:25:12;;;;;;;5.75;2.45;;;;;;;40.08;9.15;95472.31;5008918;28;20034;-76
2023/11/09 10:27:38;;;;;;;2.15;1.17;;;;;;;39.99;9.22;95465.28;5039412;28;20021;-76
2023/11/09 10:30:07;;;;;;;2.50;1.00;;;;;;;40.00;9.10;95466.78;5006983;28;20424;-76
2023/11/09 10:32:35;;;;;;;2.20;1.20;;;;;;;40.25;9.15;95465.44;5008804;28;20172;-76
2023/11/09 10:35:04;;;;;;;3.42;1.30;;;;;;;40.75;8.77;95455.53;5007911;28;20030;-75
2023/11/09 10:37:33;;;;;;;2.20;1.30;;;;;;;41.45;8.43;95454.56;5009259;28;20566;-76
2023/11/09 10:40:01;;;;;;;5.25;1.33;;;;;;;41.55;8.18;95452.25;5007678;28;20123;-76
2023/11/09 10:42:29;;;;;;;3.33;1.10;;;;;;;41.95;8.18;95450.16;5040205;28;20525;-75
2023/11/09 10:44:55;;;;;;;2.33;1.27;;;;;;;42.69;7.55;95444.03;5039682;28;20037;-75
2023/11/09 10:47:24;;;;;;;2.47;0.90;;;;;;;42.86;7.23;95431.91;5007252;28;20033;-76
2023/11/09 10:49:53;;;;;;;2.15;1.15;;;;;;;43.26;7.51;95435.38;5039792;28;20155;-76
2023/11/09 10:52:21;;;;;;;2.75;1.70;;;;;;;43.70;6.99;95442.63;5007674;28;20061;-74
2023/11/09 10:54:55;;;;;;;4.85;2.70;;;;;;;43.93;7.04;95440.78;5008799;28;20029;-75
2023/11/09 10:57:22;;;;;;;3.47;1.98;;;;;;;44.64;6.93;95435.38;5007490;28;20080;-75
2023/11/09 10:59:50;;;;;;;2.05;1.00;;;;;;;45.03;6.57;95434.91;5040132;28;20168;-74
2023/11/09 11:02:19;;;;;;;2.58;1.02;;;;;;;45.40;6.34;95435.69;5006157;28;20354;-75
2023/11/09 11:04:49;;;;;;;2.63;0.98;;;;;;;46.23;5.79;95435.38;5007952;28;20049;-75
2023/11/09 11:07:17;;;;;;;3.08;1.00;;;;;;;46.57;5.58;95433.75;5039337;28;20519;-75
2023/11/09 11:09:44;;;;;;;3.22;1.20;;;;;;;46.93;5.59;95436.47;5005956;28;20029;-75
2023/11/09 11:12:13;;;;;;;6.40;1.70;;;;;;;46.76;5.78;95429.31;5008547;28;20033;-74
2023/11/09 11:14:42;;;;;;;4.50;2.85;;;;;;;46.44;5.49;95423.06;5039162;28;20026;-75
2023/11/09 11:17:13;;;;;;;7.72;4.45;;;;;;;46.31;5.88;95418.22;5007800;28;20036;-75
2023/11/09 11:19:53;;;;;;;6.95;3.72;;;;;;;45.94;5.95;95419.72;5006991;28;20432;-76
2023/11/09 11:22:48;;;;;;;4.97;2.40;;;;;;;44.37;6.53;95416.03;5039135;28;20468;-74
2023/11/09 11:25:46;;;;;;;4.85;2.35;;;;;;;40.87;8.52;95410.13;5007316;28;20030;-74
2023/11/09 11:28:11;;;;;;;5.47;3.30;;;;;;;38.36;9.75;95402.81;5006634;28;20082;-75
2023/11/09 11:30:39;;;;;;;7.40;4.70;;;;;;;36.91;10.88;95403.25;5039260;28;20156;-74
2023/11/09 11:33:14;;;;;;;4.40;2.70;;;;;;;36.12;11.79;95403.69;5006258;28;20090;-76
2023/11/09 11:35:42;;;;;;;6.82;3.92;;;;;;;35.94;11.74;95396.56;5038477;28;20030;-76
2023/11/09 11:38:13;;;;;;;3.25;1.40;;;;;;;35.09;12.15;95403.47;5007742;28;20065;-74
2023/11/09 11:40:39;;;;;;;2.45;1.50;;;;;;;34.17;12.88;95397.97;5006786;28;20071;-75